CheckWX is a tool to help pilots better visualize weather data.  It is not intended as a substitute for an official pre-flight weather briefing.

07:12:45 UTC

CYGW TAF
Kuujjuarapik Airport
Kuujjuarapik, Canada
TAF CYGW 200538Z 2006/2018 30005KT 2SM BR OVC005 TEMPO 2006/2009 6SM BR SCT005 OVC010 FM200900 28005KT 1/2SM FG VV002 TEMPO 2009/2015 4SM BR OVC006 FM201500 30006KT 6SM BR SCT004 OVC006 RMK FCST BASED ON AUTO OBS. NXT FCST BY 201200Z

Jun-20@
06:00 UTC

Jun-20 @ 06:00 UTC

Jun-20@
09:00 UTC

Jun-20 @ 09:00 UTC

TAF CYGW 200538Z 2006/2018 30005KT 2SM BR OVC005
Wind
  • 300° at 5 KTS
Conditions
Mist
Cloud Levels
  • Overcast at 500' AGL

Jun-20@
06:00 UTC

Jun-20 @ 06:00 UTC

Jun-20@
09:00 UTC

Jun-20 @ 09:00 UTC

TEMPO 2006/2009 6SM BR SCT005 OVC010

Temporary

Temporary Changes expected for less than half the time period

Conditions
Mist
Cloud Levels
  • Scattered at 500' AGL
  • Overcast at 1,000' AGL

Jun-20@
09:00 UTC

Jun-20 @ 09:00 UTC

Jun-20@
15:00 UTC

Jun-20 @ 15:00 UTC

FM200900 28005KT 1/2SM FG VV002

From

From Standard forecast or significant change

Wind
  • 280° at 5 KTS
Conditions
Fog
Cloud Levels
  • Vertical visibility at 200' AGL

Jun-20@
09:00 UTC

Jun-20 @ 09:00 UTC

Jun-20@
15:00 UTC

Jun-20 @ 15:00 UTC

TEMPO 2009/2015 4SM BR OVC006

Temporary

Temporary Changes expected for less than half the time period

Conditions
Mist
Cloud Levels
  • Overcast at 600' AGL

Jun-20@
15:00 UTC

Jun-20 @ 15:00 UTC

Jun-20@
18:00 UTC

Jun-20 @ 18:00 UTC

FM201500 30006KT 6SM BR SCT004 OVC006 RMK FCST BASED ON AUTO OBS. NXT FCST BY 201200Z

From

From Standard forecast or significant change

Wind
  • 300° at 6 KTS
Conditions
Mist
Cloud Levels
  • Scattered at 400' AGL
  • Overcast at 600' AGL